Terminal Aerodrome Forecast
Issued by NWS Anchorage, AK

Home | Current Version | Previous Version | Text Only | Print | Product List | Glossary On
Versions: 1 2 3 4 5 6 7 8 9 10 11 12 13 14 15 16 17 18 19
000
FTAK31 PANC 301145 CCA
TAFANC
TAF COR
PANC 301145Z 3012/0118 VRB06KT P6SM VCSH SCT050 BKN080
     FM302100 16007KT P6SM VCSH SCT050 BKN080
     FM010000 16010G17KT P6SM VCSH SCT040 BKN080
     FM010600 VRB06KT P6SM SCT050 BKN100=

USA.gov is the U.S. government's official web portal to all federal, state and local government web resources and services.